sensor_id;sensor_type;location;lat;lon;timestamp;pressure;altitude;pressure_sealevel;temperature;humidity
32452;BME280;45528;52.102;5.242;2022-09-17T00:00:02;100955.0;;;18.3;56.68
32452;BME280;45528;52.102;5.242;2022-09-17T00:01:38;100955.0;;;18.29;56.64
32452;BME280;45528;52.102;5.242;2022-09-17T00:03:15;100956.0;;;18.28;56.84
32452;BME280;45528;52.102;5.242;2022-09-17T00:06:28;100959.0;;;18.2;57.0
32452;BME280;45528;52.102;5.242;2022-09-17T00:08:08;100955.0;;;18.11;57.36
32452;BME280;45528;52.102;5.242;2022-09-17T00:09:46;100958.0;;;18.02;57.72
32452;BME280;45528;52.102;5.242;2022-09-17T00:11:24;100951.0;;;17.91;57.75
32452;BME280;45528;52.102;5.242;2022-09-17T00:14:39;100958.0;;;17.91;57.97
32452;BME280;45528;52.102;5.242;2022-09-17T00:16:22;100962.0;;;17.91;58.04
32452;BME280;45528;52.102;5.242;2022-09-17T00:18:00;100957.0;;;17.82;58.38
32452;BME280;45528;52.102;5.242;2022-09-17T00:19:38;100958.0;;;17.79;58.58
32452;BME280;45528;52.102;5.242;2022-09-17T00:22:51;100961.0;;;17.77;58.51
32452;BME280;45528;52.102;5.242;2022-09-17T00:24:28;100965.0;;;17.71;58.6
32452;BME280;45528;52.102;5.242;2022-09-17T00:26:04;100964.0;;;17.68;58.82
32452;BME280;45528;52.102;5.242;2022-09-17T00:29:16;100970.0;;;17.71;59.08
32452;BME280;45528;52.102;5.242;2022-09-17T00:30:52;100975.0;;;17.68;59.46
32452;BME280;45528;52.102;5.242;2022-09-17T00:32:29;100983.0;;;17.66;59.33
32452;BME280;45528;52.102;5.242;2022-09-17T00:35:43;100981.0;;;17.73;59.18
32452;BME280;45528;52.102;5.242;2022-09-17T00:37:20;100984.0;;;17.71;59.48
32452;BME280;45528;52.102;5.242;2022-09-17T00:38:58;100978.0;;;17.75;59.36
32452;BME280;45528;52.102;5.242;2022-09-17T00:40:36;100980.0;;;17.79;59.54
32452;BME280;45528;52.102;5.242;2022-09-17T00:43:54;100981.0;;;17.84;58.88
32452;BME280;45528;52.102;5.242;2022-09-17T00:45:31;100976.0;;;17.84;58.91
32452;BME280;45528;52.102;5.242;2022-09-17T00:47:12;100978.0;;;17.8;58.95
32452;BME280;45528;52.102;5.242;2022-09-17T00:50:32;100981.0;;;17.77;58.83
32452;BME280;45528;52.102;5.242;2022-09-17T00:52:12;100981.0;;;17.72;59.09
32452;BME280;45528;52.102;5.242;2022-09-17T00:53:50;100980.0;;;17.71;59.2
32452;BME280;45528;52.102;5.242;2022-09-17T00:55:28;100985.0;;;17.7;59.03
32452;BME280;45528;52.102;5.242;2022-09-17T00:58:43;100982.0;;;17.66;59.06
32452;BME280;45528;52.102;5.242;2022-09-17T01:00:20;100980.0;;;17.62;59.05
32452;BME280;45528;52.102;5.242;2022-09-17T01:01:57;100980.0;;;17.56;59.2
32452;BME280;45528;52.102;5.242;2022-09-17T01:03:35;100980.0;;;17.61;59.16
32452;BME280;45528;52.102;5.242;2022-09-17T01:06:55;100975.0;;;17.59;59.33
32452;BME280;45528;52.102;5.242;2022-09-17T01:08:53;100977.0;;;17.55;59.12
32452;BME280;45528;52.102;5.242;2022-09-17T01:10:51;100976.0;;;17.48;59.21
32452;BME280;45528;52.102;5.242;2022-09-17T01:12:46;100978.0;;;17.52;59.18
32452;BME280;45528;52.102;5.242;2022-09-17T01:14:41;100980.0;;;17.5;59.21
32452;BME280;45528;52.102;5.242;2022-09-17T01:16:38;100975.0;;;17.45;59.13
32452;BME280;45528;52.102;5.242;2022-09-17T01:18:30;100976.0;;;17.43;59.34
32452;BME280;45528;52.102;5.242;2022-09-17T01:20:37;100980.0;;;17.5;59.17
32452;BME280;45528;52.102;5.242;2022-09-17T01:22:45;100982.0;;;17.5;59.19
32452;BME280;45528;52.102;5.242;2022-09-17T01:24:44;100988.0;;;17.5;59.05
32452;BME280;45528;52.102;5.242;2022-09-17T01:27:21;100992.0;;;17.45;58.84
32452;BME280;45528;52.102;5.242;2022-09-17T01:30:16;100995.0;;;17.5;58.79
32452;BME280;45528;52.102;5.242;2022-09-17T01:32:38;100996.0;;;17.53;58.56
32452;BME280;45528;52.102;5.242;2022-09-17T01:34:22;100997.0;;;17.54;58.76
32452;BME280;45528;52.102;5.242;2022-09-17T01:36:11;100999.0;;;17.57;58.64
32452;BME280;45528;52.102;5.242;2022-09-17T01:38:12;101003.0;;;17.61;58.66
32452;BME280;45528;52.102;5.242;2022-09-17T01:39:58;101006.0;;;17.52;58.63
32452;BME280;45528;52.102;5.242;2022-09-17T01:41:42;101007.0;;;17.61;58.22
32452;BME280;45528;52.102;5.242;2022-09-17T01:43:29;101008.0;;;17.61;58.13
32452;BME280;45528;52.102;5.242;2022-09-17T01:46:57;101010.0;;;17.72;55.81
32452;BME280;45528;52.102;5.242;2022-09-17T01:48:42;100996.0;;;17.81;56.45
32452;BME280;45528;52.102;5.242;2022-09-17T01:50:23;100998.0;;;17.87;57.26
32452;BME280;45528;52.102;5.242;2022-09-17T01:52:07;100997.0;;;17.86;56.51
32452;BME280;45528;52.102;5.242;2022-09-17T01:53:49;101001.0;;;17.88;56.63
32452;BME280;45528;52.102;5.242;2022-09-17T01:57:15;100998.0;;;17.86;56.85
32452;BME280;45528;52.102;5.242;2022-09-17T01:58:59;101008.0;;;17.8;56.83
32452;BME280;45528;52.102;5.242;2022-09-17T02:00:39;101010.0;;;17.87;56.46
32452;BME280;45528;52.102;5.242;2022-09-17T02:02:22;101007.0;;;17.79;56.29
32452;BME280;45528;52.102;5.242;2022-09-17T02:05:49;101007.0;;;17.88;56.44
32452;BME280;45528;52.102;5.242;2022-09-17T02:07:30;101005.0;;;17.88;56.42
32452;BME280;45528;52.102;5.242;2022-09-17T02:09:14;101005.0;;;17.91;56.38
32452;BME280;45528;52.102;5.242;2022-09-17T02:10:55;101008.0;;;17.98;55.64
32452;BME280;45528;52.102;5.242;2022-09-17T02:14:19;101009.0;;;18.0;55.68
32452;BME280;45528;52.102;5.242;2022-09-17T02:16:04;101011.0;;;18.05;55.24
32452;BME280;45528;52.102;5.242;2022-09-17T02:17:45;101010.0;;;17.98;55.77
32452;BME280;45528;52.102;5.242;2022-09-17T02:19:27;101005.0;;;17.95;55.7
32452;BME280;45528;52.102;5.242;2022-09-17T02:21:07;101006.0;;;17.89;56.28
32452;BME280;45528;52.102;5.242;2022-09-17T02:24:31;101010.0;;;17.78;56.24
32452;BME280;45528;52.102;5.242;2022-09-17T02:26:16;101016.0;;;17.73;56.42
32452;BME280;45528;52.102;5.242;2022-09-17T02:27:57;101019.0;;;17.73;56.68
32452;BME280;45528;52.102;5.242;2022-09-17T02:29:39;101020.0;;;17.68;56.89
32452;BME280;45528;52.102;5.242;2022-09-17T02:32:53;101019.0;;;17.61;56.76
32452;BME280;45528;52.102;5.242;2022-09-17T02:34:30;101015.0;;;17.47;57.31
32452;BME280;45528;52.102;5.242;2022-09-17T02:36:07;101018.0;;;17.43;57.19
32452;BME280;45528;52.102;5.242;2022-09-17T02:37:43;101015.0;;;17.29;57.44
32452;BME280;45528;52.102;5.242;2022-09-17T02:41:05;101019.0;;;17.29;57.76
32452;BME280;45528;52.102;5.242;2022-09-17T02:42:58;101023.0;;;17.21;57.25
32452;BME280;45528;52.102;5.242;2022-09-17T02:44:49;101026.0;;;17.22;57.64
32452;BME280;45528;52.102;5.242;2022-09-17T02:46:50;101028.0;;;17.27;57.88
32452;BME280;45528;52.102;5.242;2022-09-17T02:48:55;101023.0;;;17.32;57.74
32452;BME280;45528;52.102;5.242;2022-09-17T02:50:53;101021.0;;;17.31;57.58
32452;BME280;45528;52.102;5.242;2022-09-17T02:52:45;101019.0;;;17.31;57.56
32452;BME280;45528;52.102;5.242;2022-09-17T02:54:33;101024.0;;;17.29;57.49
32452;BME280;45528;52.102;5.242;2022-09-17T02:58:10;101014.0;;;17.29;57.61
32452;BME280;45528;52.102;5.242;2022-09-17T02:59:57;101018.0;;;17.34;57.33
32452;BME280;45528;52.102;5.242;2022-09-17T03:01:39;101011.0;;;17.38;57.41
32452;BME280;45528;52.102;5.242;2022-09-17T03:03:20;101014.0;;;17.37;57.63
32452;BME280;45528;52.102;5.242;2022-09-17T03:05:03;101021.0;;;17.37;57.53
32452;BME280;45528;52.102;5.242;2022-09-17T03:08:27;101022.0;;;17.45;57.7
32452;BME280;45528;52.102;5.242;2022-09-17T03:10:04;101026.0;;;17.48;57.75
32452;BME280;45528;52.102;5.242;2022-09-17T03:11:41;101030.0;;;17.54;57.82
32452;BME280;45528;52.102;5.242;2022-09-17T03:13:18;101027.0;;;17.53;57.93
32452;BME280;45528;52.102;5.242;2022-09-17T03:16:31;101012.0;;;17.59;57.61
32452;BME280;45528;52.102;5.242;2022-09-17T03:18:08;101011.0;;;17.64;57.56
32452;BME280;45528;52.102;5.242;2022-09-17T03:19:44;101010.0;;;17.61;57.55
32452;BME280;45528;52.102;5.242;2022-09-17T03:22:56;101008.0;;;17.63;57.78
32452;BME280;45528;52.102;5.242;2022-09-17T03:24:32;101005.0;;;17.61;57.4
32452;BME280;45528;52.102;5.242;2022-09-17T03:26:08;101005.0;;;17.57;57.55
32452;BME280;45528;52.102;5.242;2022-09-17T03:29:21;101003.0;;;17.54;57.73
32452;BME280;45528;52.102;5.242;2022-09-17T03:30:57;101001.0;;;17.55;57.58
32452;BME280;45528;52.102;5.242;2022-09-17T03:32:33;101002.0;;;17.57;57.84
32452;BME280;45528;52.102;5.242;2022-09-17T03:35:46;101003.0;;;17.53;57.69
32452;BME280;45528;52.102;5.242;2022-09-17T03:37:23;101000.0;;;17.48;57.81
32452;BME280;45528;52.102;5.242;2022-09-17T03:39:00;101005.0;;;17.43;57.95
32452;BME280;45528;52.102;5.242;2022-09-17T03:40:36;101005.0;;;17.38;58.05
32452;BME280;45528;52.102;5.242;2022-09-17T03:43:49;101014.0;;;17.34;58.16
32452;BME280;45528;52.102;5.242;2022-09-17T03:45:26;101010.0;;;17.3;58.07
32452;BME280;45528;52.102;5.242;2022-09-17T03:47:02;101009.0;;;17.25;58.55
32452;BME280;45528;52.102;5.242;2022-09-17T03:50:15;101015.0;;;17.22;58.4
32452;BME280;45528;52.102;5.242;2022-09-17T03:51:51;101015.0;;;17.18;58.45
32452;BME280;45528;52.102;5.242;2022-09-17T03:53:27;101022.0;;;17.16;58.49
32452;BME280;45528;52.102;5.242;2022-09-17T03:56:41;101031.0;;;17.13;58.55
32452;BME280;45528;52.102;5.242;2022-09-17T03:58:17;101038.0;;;17.18;58.32
32452;BME280;45528;52.102;5.242;2022-09-17T03:59:53;101041.0;;;17.21;58.33
32452;BME280;45528;52.102;5.242;2022-09-17T04:01:29;101039.0;;;17.27;58.43
32452;BME280;45528;52.102;5.242;2022-09-17T04:04:42;101039.0;;;17.16;58.58
32452;BME280;45528;52.102;5.242;2022-09-17T04:06:18;101036.0;;;17.09;58.73
32452;BME280;45528;52.102;5.242;2022-09-17T04:07:56;101034.0;;;17.11;58.62
32452;BME280;45528;52.102;5.242;2022-09-17T04:11:09;101026.0;;;17.11;58.29
32452;BME280;45528;52.102;5.242;2022-09-17T04:12:45;101031.0;;;17.2;58.11
32452;BME280;45528;52.102;5.242;2022-09-17T04:14:21;101035.0;;;17.25;58.14
32452;BME280;45528;52.102;5.242;2022-09-17T04:17:33;101030.0;;;17.21;57.84
32452;BME280;45528;52.102;5.242;2022-09-17T04:19:10;101036.0;;;17.29;57.02
32452;BME280;45528;52.102;5.242;2022-09-17T04:20:47;101035.0;;;17.25;56.88
32452;BME280;45528;52.102;5.242;2022-09-17T04:22:23;101038.0;;;17.34;56.25
32452;BME280;45528;52.102;5.242;2022-09-17T04:25:36;101041.0;;;17.3;56.29
32452;BME280;45528;52.102;5.242;2022-09-17T04:27:13;101039.0;;;17.27;56.34
32452;BME280;45528;52.102;5.242;2022-09-17T04:28:49;101036.0;;;17.2;56.36
32452;BME280;45528;52.102;5.242;2022-09-17T04:32:03;101036.0;;;17.11;56.13
32452;BME280;45528;52.102;5.242;2022-09-17T04:33:38;101039.0;;;17.09;56.27
32452;BME280;45528;52.102;5.242;2022-09-17T04:35:15;101041.0;;;17.02;56.62
32452;BME280;45528;52.102;5.242;2022-09-17T04:38:28;101039.0;;;16.95;56.55
32452;BME280;45528;52.102;5.242;2022-09-17T04:40:05;101037.0;;;17.02;56.34
32452;BME280;45528;52.102;5.242;2022-09-17T04:41:42;101036.0;;;16.9;56.29
32452;BME280;45528;52.102;5.242;2022-09-17T04:43:18;101035.0;;;17.0;54.68
32452;BME280;45528;52.102;5.242;2022-09-17T04:46:31;101032.0;;;17.02;55.39
32452;BME280;45528;52.102;5.242;2022-09-17T04:48:07;101031.0;;;16.95;55.27
32452;BME280;45528;52.102;5.242;2022-09-17T04:49:43;101034.0;;;17.03;54.38
32452;BME280;45528;52.102;5.242;2022-09-17T04:52:55;101034.0;;;17.11;54.93
32452;BME280;45528;52.102;5.242;2022-09-17T04:54:32;101036.0;;;17.21;54.26
32452;BME280;45528;52.102;5.242;2022-09-17T04:56:08;101036.0;;;17.3;53.97
32452;BME280;45528;52.102;5.242;2022-09-17T04:59:22;101036.0;;;17.21;54.66
32452;BME280;45528;52.102;5.242;2022-09-17T05:00:58;101040.0;;;17.2;54.25
32452;BME280;45528;52.102;5.242;2022-09-17T05:02:34;101041.0;;;17.21;54.38
32452;BME280;45528;52.102;5.242;2022-09-17T05:07:22;101045.0;;;17.13;55.17
32452;BME280;45528;52.102;5.242;2022-09-17T05:08:59;101049.0;;;17.05;55.31
32452;BME280;45528;52.102;5.242;2022-09-17T05:10:36;101052.0;;;16.98;55.45
32452;BME280;45528;52.102;5.242;2022-09-17T05:13:48;101049.0;;;16.95;55.25
32452;BME280;45528;52.102;5.242;2022-09-17T05:15:24;101047.0;;;16.93;55.34
32452;BME280;45528;52.102;5.242;2022-09-17T05:17:01;101044.0;;;16.88;55.37
32452;BME280;45528;52.102;5.242;2022-09-17T05:20:14;101042.0;;;16.86;55.78
32452;BME280;45528;52.102;5.242;2022-09-17T05:21:51;101055.0;;;16.87;55.29
32452;BME280;45528;52.102;5.242;2022-09-17T05:23:28;101056.0;;;16.87;55.64
32452;BME280;45528;52.102;5.242;2022-09-17T05:26:41;101058.0;;;16.86;56.16
32452;BME280;45528;52.102;5.242;2022-09-17T05:28:17;101058.0;;;16.93;56.2
32452;BME280;45528;52.102;5.242;2022-09-17T05:29:53;101063.0;;;16.88;55.96
32452;BME280;45528;52.102;5.242;2022-09-17T05:31:30;101069.0;;;16.88;56.04
32452;BME280;45528;52.102;5.242;2022-09-17T05:34:43;101069.0;;;16.98;55.47
32452;BME280;45528;52.102;5.242;2022-09-17T05:36:19;101068.0;;;17.07;56.01
32452;BME280;45528;52.102;5.242;2022-09-17T05:37:56;101067.0;;;17.07;56.17
32452;BME280;45528;52.102;5.242;2022-09-17T05:41:09;101070.0;;;17.18;55.69
32452;BME280;45528;52.102;5.242;2022-09-17T05:42:45;101072.0;;;17.27;55.16
32452;BME280;45528;52.102;5.242;2022-09-17T05:44:22;101069.0;;;17.3;55.18
32452;BME280;45528;52.102;5.242;2022-09-17T05:47:36;101067.0;;;17.38;55.12
32452;BME280;45528;52.102;5.242;2022-09-17T05:49:14;101066.0;;;17.31;55.56
32452;BME280;45528;52.102;5.242;2022-09-17T05:50:50;101070.0;;;17.53;55.1
32452;BME280;45528;52.102;5.242;2022-09-17T05:52:27;101078.0;;;17.66;54.87
32452;BME280;45528;52.102;5.242;2022-09-17T05:55:41;101082.0;;;17.71;55.06
32452;BME280;45528;52.102;5.242;2022-09-17T05:57:19;101077.0;;;17.84;55.31
32452;BME280;45528;52.102;5.242;2022-09-17T05:58:56;101071.0;;;17.75;55.77
32452;BME280;45528;52.102;5.242;2022-09-17T06:02:11;101075.0;;;17.78;56.2
32452;BME280;45528;52.102;5.242;2022-09-17T06:03:48;101073.0;;;17.79;56.32
32452;BME280;45528;52.102;5.242;2022-09-17T06:05:25;101076.0;;;17.86;56.66
32452;BME280;45528;52.102;5.242;2022-09-17T06:07:03;101068.0;;;17.86;56.53
32452;BME280;45528;52.102;5.242;2022-09-17T06:10:16;101075.0;;;17.84;56.7
32452;BME280;45528;52.102;5.242;2022-09-17T06:11:52;101076.0;;;17.82;56.81
32452;BME280;45528;52.102;5.242;2022-09-17T06:13:30;101073.0;;;17.88;56.91
32452;BME280;45528;52.102;5.242;2022-09-17T06:16:46;101081.0;;;17.86;56.58
32452;BME280;45528;52.102;5.242;2022-09-17T06:18:23;101082.0;;;17.89;56.97
32452;BME280;45528;52.102;5.242;2022-09-17T06:20:00;101084.0;;;17.89;57.16
32452;BME280;45528;52.102;5.242;2022-09-17T06:21:37;101084.0;;;17.91;57.35
32452;BME280;45528;52.102;5.242;2022-09-17T06:24:50;101085.0;;;17.95;57.48
32452;BME280;45528;52.102;5.242;2022-09-17T06:26:27;101085.0;;;17.96;57.6
32452;BME280;45528;52.102;5.242;2022-09-17T06:28:03;101092.0;;;18.0;57.59
32452;BME280;45528;52.102;5.242;2022-09-17T06:31:16;101098.0;;;18.06;57.33
32452;BME280;45528;52.102;5.242;2022-09-17T06:32:52;101098.0;;;18.07;57.61
32452;BME280;45528;52.102;5.242;2022-09-17T06:34:29;101099.0;;;18.13;57.42
32452;BME280;45528;52.102;5.242;2022-09-17T06:37:45;101101.0;;;18.18;57.43
32452;BME280;45528;52.102;5.242;2022-09-17T06:39:21;101096.0;;;18.22;57.79
32452;BME280;45528;52.102;5.242;2022-09-17T06:40:57;101096.0;;;18.22;57.42
32452;BME280;45528;52.102;5.242;2022-09-17T06:42:33;101094.0;;;18.32;57.55
32452;BME280;45528;52.102;5.242;2022-09-17T06:45:50;101092.0;;;18.34;57.07
32452;BME280;45528;52.102;5.242;2022-09-17T06:47:27;101098.0;;;18.36;57.2
32452;BME280;45528;52.102;5.242;2022-09-17T06:49:03;101096.0;;;18.45;56.62
32452;BME280;45528;52.102;5.242;2022-09-17T06:52:16;101103.0;;;18.47;57.04
32452;BME280;45528;52.102;5.242;2022-09-17T06:53:52;101108.0;;;18.52;56.95
32452;BME280;45528;52.102;5.242;2022-09-17T06:55:28;101105.0;;;18.57;56.97
32452;BME280;45528;52.102;5.242;2022-09-17T06:58:43;101106.0;;;18.62;56.87
32452;BME280;45528;52.102;5.242;2022-09-17T07:00:19;101109.0;;;18.64;57.36
32452;BME280;45528;52.102;5.242;2022-09-17T07:01:55;101111.0;;;18.7;57.35
32452;BME280;45528;52.102;5.242;2022-09-17T07:03:32;101111.0;;;18.77;57.63
32452;BME280;45528;52.102;5.242;2022-09-17T07:06:44;101126.0;;;19.04;56.47
32452;BME280;45528;52.102;5.242;2022-09-17T07:08:21;101130.0;;;19.11;55.79
32452;BME280;45528;52.102;5.242;2022-09-17T07:09:57;101130.0;;;19.12;56.14
32452;BME280;45528;52.102;5.242;2022-09-17T07:13:10;101123.0;;;19.11;56.25
32452;BME280;45528;52.102;5.242;2022-09-17T07:14:47;101122.0;;;19.09;55.56
32452;BME280;45528;52.102;5.242;2022-09-17T07:16:24;101117.0;;;19.0;56.15
32452;BME280;45528;52.102;5.242;2022-09-17T07:19:43;101112.0;;;18.91;56.99
32452;BME280;45528;52.102;5.242;2022-09-17T07:21:20;101113.0;;;18.88;57.09
32452;BME280;45528;52.102;5.242;2022-09-17T07:22:56;101116.0;;;19.02;56.73
32452;BME280;45528;52.102;5.242;2022-09-17T07:24:33;101113.0;;;19.18;56.1
32452;BME280;45528;52.102;5.242;2022-09-17T07:27:49;101117.0;;;19.3;56.39
32452;BME280;45528;52.102;5.242;2022-09-17T07:29:26;101118.0;;;19.45;56.09
32452;BME280;45528;52.102;5.242;2022-09-17T07:31:03;101114.0;;;19.57;55.68
32452;BME280;45528;52.102;5.242;2022-09-17T07:34:17;101118.0;;;19.73;54.72
32452;BME280;45528;52.102;5.242;2022-09-17T07:35:55;101111.0;;;19.89;54.22
32452;BME280;45528;52.102;5.242;2022-09-17T07:37:32;101111.0;;;19.95;54.53
32452;BME280;45528;52.102;5.242;2022-09-17T07:39:08;101109.0;;;20.14;54.13
32452;BME280;45528;52.102;5.242;2022-09-17T07:42:28;101112.0;;;20.25;53.75
32452;BME280;45528;52.102;5.242;2022-09-17T07:44:06;101111.0;;;20.36;53.33
32452;BME280;45528;52.102;5.242;2022-09-17T07:45:41;101114.0;;;20.38;52.78
32452;BME280;45528;52.102;5.242;2022-09-17T07:48:54;101110.0;;;20.41;52.33
32452;BME280;45528;52.102;5.242;2022-09-17T07:50:32;101108.0;;;20.45;51.59
32452;BME280;45528;52.102;5.242;2022-09-17T07:52:08;101107.0;;;20.48;50.7
32452;BME280;45528;52.102;5.242;2022-09-17T07:53:44;101114.0;;;20.41;51.1
32452;BME280;45528;52.102;5.242;2022-09-17T07:57:02;101115.0;;;20.45;51.61
32452;BME280;45528;52.102;5.242;2022-09-17T07:58:39;101123.0;;;20.39;53.19
32452;BME280;45528;52.102;5.242;2022-09-17T08:00:15;101121.0;;;20.45;52.11
32452;BME280;45528;52.102;5.242;2022-09-17T08:03:28;101115.0;;;20.5;50.92
32452;BME280;45528;52.102;5.242;2022-09-17T08:05:04;101113.0;;;20.53;51.42
32452;BME280;45528;52.102;5.242;2022-09-17T08:06:41;101114.0;;;20.62;51.81
32452;BME280;45528;52.102;5.242;2022-09-17T08:08:17;101108.0;;;20.67;51.28
32452;BME280;45528;52.102;5.242;2022-09-17T08:11:30;101110.0;;;20.63;51.33
32452;BME280;45528;52.102;5.242;2022-09-17T08:13:06;101111.0;;;20.71;51.47
32452;BME280;45528;52.102;5.242;2022-09-17T08:14:43;101110.0;;;20.75;51.02
32452;BME280;45528;52.102;5.242;2022-09-17T08:17:57;101106.0;;;20.8;51.65
32452;BME280;45528;52.102;5.242;2022-09-17T08:19:33;101109.0;;;20.83;51.0
32452;BME280;45528;52.102;5.242;2022-09-17T08:21:12;101110.0;;;20.99;49.58
32452;BME280;45528;52.102;5.242;2022-09-17T08:24:25;101112.0;;;21.08;48.95
32452;BME280;45528;52.102;5.242;2022-09-17T08:26:03;101112.0;;;21.12;48.75
32452;BME280;45528;52.102;5.242;2022-09-17T08:27:40;101115.0;;;21.14;49.55
32452;BME280;45528;52.102;5.242;2022-09-17T08:29:16;101117.0;;;21.03;50.02
32452;BME280;45528;52.102;5.242;2022-09-17T08:32:34;101118.0;;;21.08;48.94
32452;BME280;45528;52.102;5.242;2022-09-17T08:34:10;101112.0;;;21.07;49.2
32452;BME280;45528;52.102;5.242;2022-09-17T08:35:50;101121.0;;;21.05;49.07
32452;BME280;45528;52.102;5.242;2022-09-17T08:39:03;101125.0;;;20.85;48.64
32452;BME280;45528;52.102;5.242;2022-09-17T08:40:46;101134.0;;;20.8;48.33
32452;BME280;45528;52.102;5.242;2022-09-17T08:42:38;101137.0;;;20.58;49.21
32452;BME280;45528;52.102;5.242;2022-09-17T08:44:23;101133.0;;;20.32;48.6
32452;BME280;45528;52.102;5.242;2022-09-17T08:46:01;101138.0;;;20.41;50.34
32452;BME280;45528;52.102;5.242;2022-09-17T08:49:28;101137.0;;;20.37;51.33
32452;BME280;45528;52.102;5.242;2022-09-17T08:51:14;101142.0;;;20.34;51.46
32452;BME280;45528;52.102;5.242;2022-09-17T08:53:17;101151.0;;;20.43;50.03
32452;BME280;45528;52.102;5.242;2022-09-17T08:55:17;101155.0;;;20.55;51.29
32452;BME280;45528;52.102;5.242;2022-09-17T08:57:10;101141.0;;;20.56;51.78
32452;BME280;45528;52.102;5.242;2022-09-17T08:59:00;101151.0;;;20.58;51.53
32452;BME280;45528;52.102;5.242;2022-09-17T09:00:45;101153.0;;;20.58;50.97
32452;BME280;45528;52.102;5.242;2022-09-17T09:04:31;101155.0;;;20.47;52.84
32452;BME280;45528;52.102;5.242;2022-09-17T09:06:23;101155.0;;;20.63;51.61
32452;BME280;45528;52.102;5.242;2022-09-17T09:08:05;101156.0;;;20.56;51.1
32452;BME280;45528;52.102;5.242;2022-09-17T09:09:50;101153.0;;;20.45;51.77
32452;BME280;45528;52.102;5.242;2022-09-17T09:11:33;101152.0;;;20.47;51.96
32452;BME280;45528;52.102;5.242;2022-09-17T09:13:12;101155.0;;;20.37;51.69
32452;BME280;45528;52.102;5.242;2022-09-17T09:16:38;101152.0;;;20.34;52.5
32452;BME280;45528;52.102;5.242;2022-09-17T09:18:18;101146.0;;;20.39;52.58
32452;BME280;45528;52.102;5.242;2022-09-17T09:19:55;101153.0;;;20.56;51.89
32452;BME280;45528;52.102;5.242;2022-09-17T09:21:38;101156.0;;;20.41;52.63
32452;BME280;45528;52.102;5.242;2022-09-17T09:25:18;101151.0;;;20.25;53.44
32452;BME280;45528;52.102;5.242;2022-09-17T09:27:00;101156.0;;;20.25;53.57
32452;BME280;45528;52.102;5.242;2022-09-17T09:29:00;101155.0;;;20.41;53.96
32452;BME280;45528;52.102;5.242;2022-09-17T09:31:16;101152.0;;;20.45;53.67
32452;BME280;45528;52.102;5.242;2022-09-17T09:33:10;101153.0;;;20.6;53.42
32452;BME280;45528;52.102;5.242;2022-09-17T09:34:48;101152.0;;;20.76;53.17
32452;BME280;45528;52.102;5.242;2022-09-17T09:36:27;101155.0;;;20.87;52.97
32452;BME280;45528;52.102;5.242;2022-09-17T09:40:04;101156.0;;;20.89;53.32
32452;BME280;45528;52.102;5.242;2022-09-17T09:41:57;101155.0;;;20.91;52.72
32452;BME280;45528;52.102;5.242;2022-09-17T09:43:42;101158.0;;;21.12;50.88
32452;BME280;45528;52.102;5.242;2022-09-17T09:45:26;101153.0;;;21.13;52.04
32452;BME280;45528;52.102;5.242;2022-09-17T09:47:32;101152.0;;;21.41;51.4
32452;BME280;45528;52.102;5.242;2022-09-17T09:49:30;101151.0;;;21.33;51.81
32452;BME280;45528;52.102;5.242;2022-09-17T09:51:19;101149.0;;;21.61;51.08
32452;BME280;45528;52.102;5.242;2022-09-17T09:53:09;101147.0;;;21.67;49.11
32452;BME280;45528;52.102;5.242;2022-09-17T09:56:53;101160.0;;;21.73;49.05
32452;BME280;45528;52.102;5.242;2022-09-17T09:58:34;101159.0;;;21.7;49.44
32452;BME280;45528;52.102;5.242;2022-09-17T10:00:21;101160.0;;;21.53;51.14
32452;BME280;45528;52.102;5.242;2022-09-17T10:01:59;101165.0;;;21.05;53.37
32452;BME280;45528;52.102;5.242;2022-09-17T10:03:37;101164.0;;;20.86;53.37
32452;BME280;45528;52.102;5.242;2022-09-17T10:06:53;101161.0;;;20.66;54.19
32452;BME280;45528;52.102;5.242;2022-09-17T10:08:36;101155.0;;;20.76;54.46
32452;BME280;45528;52.102;5.242;2022-09-17T10:10:13;101161.0;;;20.91;55.95
32452;BME280;45528;52.102;5.242;2022-09-17T10:12:15;101163.0;;;21.04;55.41
32452;BME280;45528;52.102;5.242;2022-09-17T10:13:52;101162.0;;;20.76;52.36
32452;BME280;45528;52.102;5.242;2022-09-17T10:17:28;101162.0;;;20.83;51.48
32452;BME280;45528;52.102;5.242;2022-09-17T10:19:11;101159.0;;;20.86;50.63
32452;BME280;45528;52.102;5.242;2022-09-17T10:20:50;101156.0;;;20.9;49.93
32452;BME280;45528;52.102;5.242;2022-09-17T10:22:31;101152.0;;;21.02;51.77
32452;BME280;45528;52.102;5.242;2022-09-17T10:25:57;101157.0;;;21.01;50.03
32452;BME280;45528;52.102;5.242;2022-09-17T10:27:35;101150.0;;;20.89;50.03
32452;BME280;45528;52.102;5.242;2022-09-17T10:29:14;101152.0;;;20.86;48.17
32452;BME280;45528;52.102;5.242;2022-09-17T10:30:55;101148.0;;;20.96;48.34
32452;BME280;45528;52.102;5.242;2022-09-17T10:34:18;101144.0;;;21.04;50.07
32452;BME280;45528;52.102;5.242;2022-09-17T10:35:59;101147.0;;;21.29;48.48
32452;BME280;45528;52.102;5.242;2022-09-17T10:37:43;101144.0;;;21.39;48.36
32452;BME280;45528;52.102;5.242;2022-09-17T10:39:30;101144.0;;;21.26;48.42
32452;BME280;45528;52.102;5.242;2022-09-17T10:41:12;101140.0;;;21.6;48.01
32452;BME280;45528;52.102;5.242;2022-09-17T10:44:52;101148.0;;;21.82;47.48
32452;BME280;45528;52.102;5.242;2022-09-17T10:46:33;101137.0;;;21.67;45.75
32452;BME280;45528;52.102;5.242;2022-09-17T10:48:14;101135.0;;;21.55;48.57
32452;BME280;45528;52.102;5.242;2022-09-17T10:49:55;101134.0;;;21.88;47.17
32452;BME280;45528;52.102;5.242;2022-09-17T10:51:32;101128.0;;;21.87;48.79
32452;BME280;45528;52.102;5.242;2022-09-17T10:55:26;101128.0;;;21.84;45.51
32452;BME280;45528;52.102;5.242;2022-09-17T10:57:09;101125.0;;;22.06;45.5
32452;BME280;45528;52.102;5.242;2022-09-17T10:58:56;101123.0;;;22.22;46.34
32452;BME280;45528;52.102;5.242;2022-09-17T11:00:50;101118.0;;;22.28;46.16
32452;BME280;45528;52.102;5.242;2022-09-17T11:02:55;101106.0;;;22.48;46.51
32452;BME280;45528;52.102;5.242;2022-09-17T11:07:31;101112.0;;;22.62;43.85
32452;BME280;45528;52.102;5.242;2022-09-17T11:10:02;101110.0;;;22.63;42.92